createdAt,value
2018-07-02T00:00:14.635Z,8.00
2018-07-02T00:02:44.027Z,8.10
2018-07-02T00:05:13.079Z,8.10
2018-07-02T00:07:42.340Z,8.10
2018-07-02T00:10:11.518Z,8.10
2018-07-02T00:12:40.731Z,8.00
2018-07-02T00:15:09.864Z,8.00
2018-07-02T00:17:39.237Z,7.80
2018-07-02T00:20:08.720Z,7.70
2018-07-02T00:22:37.979Z,7.60
2018-07-02T00:25:07.068Z,7.60
2018-07-02T00:27:36.188Z,7.50
2018-07-02T00:30:05.419Z,7.50
2018-07-02T00:32:34.603Z,7.50
2018-07-02T00:35:03.811Z,7.50
2018-07-02T00:37:32.987Z,7.40
2018-07-02T00:40:02.236Z,7.40
2018-07-02T00:42:31.690Z,7.40
2018-07-02T00:45:01.000Z,7.50
2018-07-02T00:47:30.739Z,7.50
2018-07-02T00:49:59.868Z,7.50
2018-07-02T00:52:29.028Z,7.40
2018-07-02T00:54:58.164Z,7.40
2018-07-02T00:57:27.203Z,7.30
2018-07-02T01:00:01.643Z,7.20
2018-07-02T01:02:30.687Z,7.20
2018-07-02T01:04:59.947Z,7.20
2018-07-02T01:07:29.108Z,7.20
2018-07-02T01:09:58.292Z,7.10
2018-07-02T01:12:27.452Z,7.00
2018-07-02T01:14:56.759Z,6.90
2018-07-02T01:17:25.843Z,6.80
2018-07-02T01:19:55.072Z,6.70
2018-07-02T01:22:24.466Z,6.70
2018-07-02T01:24:53.679Z,6.80
2018-07-02T01:27:22.827Z,6.60
2018-07-02T01:29:52.310Z,6.50
2018-07-02T01:32:21.775Z,6.50
2018-07-02T01:34:50.936Z,6.50
2018-07-02T01:37:20.206Z,6.60
2018-07-02T01:39:49.335Z,6.60
2018-07-02T01:42:18.571Z,6.50
2018-07-02T01:44:47.775Z,6.50
2018-07-02T01:47:16.963Z,6.50
2018-07-02T01:49:46.164Z,6.40
2018-07-02T01:52:15.662Z,6.40
2018-07-02T01:54:44.881Z,6.40
2018-07-02T01:57:14.247Z,6.50
2018-07-02T01:59:43.620Z,6.60
2018-07-02T02:02:12.814Z,6.50
2018-07-02T02:04:42.096Z,6.60
2018-07-02T02:07:11.252Z,6.70
2018-07-02T02:09:40.454Z,6.90
2018-07-02T02:12:09.588Z,6.90
2018-07-02T02:14:38.741Z,7.00
2018-07-02T02:17:07.956Z,6.90
2018-07-02T02:19:37.440Z,6.90
2018-07-02T02:22:06.675Z,6.90
2018-07-02T02:24:35.755Z,7.00
2018-07-02T02:27:05.240Z,7.20
2018-07-02T02:29:34.307Z,7.10
2018-07-02T02:32:03.636Z,7.20
2018-07-02T02:34:32.875Z,7.30
2018-07-02T02:37:02.195Z,7.30
2018-07-02T02:39:31.484Z,7.40
2018-07-02T02:42:00.707Z,7.40
2018-07-02T02:44:30.589Z,7.40
2018-07-02T02:46:59.947Z,7.50
2018-07-02T02:49:29.083Z,7.50
2018-07-02T02:51:58.373Z,7.50
2018-07-02T02:54:27.507Z,7.50
2018-07-02T02:56:56.789Z,7.40
2018-07-02T02:59:25.915Z,7.40
2018-07-02T03:01:55.232Z,7.50
2018-07-02T03:04:24.377Z,7.50
2018-07-02T03:06:53.971Z,7.30
2018-07-02T03:09:23.127Z,7.40
2018-07-02T03:11:52.329Z,7.40
2018-07-02T03:16:50.360Z,7.30
2018-07-02T03:19:19.592Z,7.30
2018-07-02T03:21:48.967Z,7.40
2018-07-02T03:24:18.200Z,7.40
2018-07-02T03:26:47.721Z,7.30
2018-07-02T03:34:14.775Z,7.50
2018-07-02T03:36:44.023Z,7.50
2018-07-02T03:39:13.168Z,7.60
2018-07-02T03:41:42.953Z,7.60
2018-07-02T03:44:12.267Z,7.70
2018-07-02T03:46:41.476Z,7.60
2018-07-02T03:49:10.624Z,7.70
2018-07-02T03:51:39.953Z,7.70
2018-07-02T03:54:09.094Z,7.70
2018-07-02T03:56:38.130Z,7.70
2018-07-02T03:59:07.387Z,7.70
2018-07-02T04:01:36.513Z,7.60
2018-07-02T04:04:05.768Z,7.70
2018-07-02T04:09:04.453Z,7.80
2018-07-02T04:11:33.555Z,7.60
2018-07-02T04:14:02.788Z,7.70
2018-07-02T04:16:32.455Z,7.70
2018-07-02T04:19:07.032Z,7.80
2018-07-02T04:21:36.350Z,7.90
2018-07-02T04:24:05.959Z,7.90
2018-07-02T04:26:35.431Z,8.00
2018-07-02T04:29:05.191Z,8.10
2018-07-02T04:31:34.603Z,8.20
2018-07-02T04:36:32.833Z,8.30
2018-07-02T04:39:01.838Z,8.30
2018-07-02T04:41:31.179Z,8.40
2018-07-02T04:46:29.032Z,8.70
2018-07-02T04:48:58.363Z,8.80
2018-07-02T04:51:27.419Z,8.70
2018-07-02T04:53:56.650Z,8.80
2018-07-02T04:56:26.026Z,8.90
2018-07-02T04:58:55.770Z,9.00
2018-07-02T05:01:24.873Z,9.10
2018-07-02T05:03:55.140Z,9.20
2018-07-02T05:06:24.376Z,9.40
2018-07-02T05:08:53.525Z,9.50
2018-07-02T05:11:22.803Z,9.80
2018-07-02T05:13:52.049Z,9.80
2018-07-02T05:16:21.436Z,10.00
2018-07-02T05:18:50.608Z,10.10
2018-07-02T05:21:19.815Z,10.20
2018-07-02T05:23:49.136Z,10.40
2018-07-02T05:26:18.730Z,10.70
2018-07-02T05:28:48.167Z,11.00
2018-07-02T05:31:17.700Z,11.40
2018-07-02T05:33:46.897Z,11.70
2018-07-02T05:36:16.163Z,11.90
2018-07-02T05:38:45.468Z,12.00
2018-07-02T05:41:14.880Z,11.90
2018-07-02T05:43:44.283Z,12.10
2018-07-02T05:46:13.662Z,11.90
2018-07-02T05:48:43.032Z,11.90
2018-07-02T05:51:12.608Z,12.30
2018-07-02T05:53:41.916Z,12.60
2018-07-02T05:56:11.077Z,12.60
2018-07-02T05:58:40.189Z,12.60
2018-07-02T06:01:09.415Z,12.80
2018-07-02T06:03:38.829Z,12.90
2018-07-02T06:06:08.108Z,13.10
2018-07-02T06:08:37.263Z,13.30
2018-07-02T06:11:06.675Z,13.40
2018-07-02T06:13:36.133Z,13.50
2018-07-02T06:16:05.669Z,13.50
2018-07-02T06:18:35.180Z,13.30
2018-07-02T06:21:04.388Z,13.20
2018-07-02T06:23:33.540Z,13.20
2018-07-02T06:26:02.984Z,13.40
2018-07-02T06:28:32.256Z,13.40
2018-07-02T06:31:03.020Z,13.40
2018-07-02T06:33:32.762Z,13.60
2018-07-02T06:36:01.817Z,13.60
2018-07-02T06:38:31.080Z,13.70
2018-07-02T06:41:00.301Z,14.10
2018-07-02T06:43:29.720Z,14.00
2018-07-02T06:45:59.060Z,14.40
2018-07-02T06:48:28.384Z,14.10
2018-07-02T06:50:57.629Z,14.00
2018-07-02T06:53:26.879Z,14.00
2018-07-02T06:55:56.620Z,14.30
2018-07-02T06:58:26.037Z,14.20
2018-07-02T07:00:55.332Z,14.70
2018-07-02T07:03:24.552Z,14.60
2018-07-02T07:08:22.791Z,14.80
2018-07-02T07:10:52.073Z,14.80
2018-07-02T07:13:21.469Z,15.00
2018-07-02T07:15:50.930Z,14.80
2018-07-02T07:18:20.096Z,15.10
2018-07-02T07:20:49.415Z,14.90
2018-07-02T07:23:19.250Z,14.90
2018-07-02T07:25:48.458Z,15.00
2018-07-02T07:28:17.959Z,15.20
2018-07-02T07:30:47.531Z,14.90
2018-07-02T07:33:16.741Z,15.10
2018-07-02T07:35:45.954Z,15.30
2018-07-02T07:38:15.223Z,15.10
2018-07-02T07:40:44.423Z,14.60
2018-07-02T07:43:13.947Z,14.60
2018-07-02T07:45:43.293Z,15.00
2018-07-02T07:48:12.521Z,14.90
2018-07-02T07:50:41.799Z,14.80
2018-07-02T07:53:11.285Z,15.40
2018-07-02T07:55:40.751Z,15.30
2018-07-02T07:58:10.180Z,15.30
2018-07-02T08:00:39.299Z,15.00
2018-07-02T08:03:08.783Z,15.00
2018-07-02T08:05:37.963Z,15.50
2018-07-02T08:08:07.163Z,15.50
2018-07-02T08:10:36.276Z,15.40
2018-07-02T08:13:05.520Z,14.90
2018-07-02T08:15:34.872Z,15.00
2018-07-02T08:18:04.106Z,15.10
2018-07-02T08:20:33.428Z,15.70
2018-07-02T08:25:32.196Z,16.00
2018-07-02T08:28:01.366Z,16.20
2018-07-02T08:30:30.376Z,15.70
2018-07-02T08:32:59.715Z,15.40
2018-07-02T08:35:28.918Z,15.30
2018-07-02T08:37:58.043Z,15.40
2018-07-02T08:40:27.171Z,15.50
2018-07-02T08:42:56.352Z,16.40
2018-07-02T08:45:25.604Z,16.70
2018-07-02T08:47:54.889Z,16.70
2018-07-02T08:50:23.897Z,16.40
2018-07-02T08:52:53.124Z,16.30
2018-07-02T08:55:22.221Z,16.90
2018-07-02T08:57:51.468Z,17.30
2018-07-02T09:00:20.683Z,17.40
2018-07-02T09:02:50.512Z,17.30
2018-07-02T09:05:19.635Z,17.70
2018-07-02T09:07:49.222Z,17.20
2018-07-02T09:10:18.570Z,17.70
2018-07-02T09:12:48.029Z,17.40
2018-07-02T09:15:17.651Z,16.80
2018-07-02T09:17:46.796Z,16.30
2018-07-02T09:20:16.020Z,16.40
2018-07-02T09:22:45.324Z,16.30
2018-07-02T09:25:14.420Z,16.20
2018-07-02T09:27:43.567Z,16.10
2018-07-02T09:30:12.980Z,16.10
2018-07-02T09:32:42.039Z,16.30
2018-07-02T09:35:11.404Z,16.20
2018-07-02T09:37:40.970Z,16.20
2018-07-02T09:40:09.867Z,16.70
2018-07-02T09:42:39.055Z,17.00
2018-07-02T09:45:08.798Z,16.80
2018-07-02T09:47:37.985Z,17.30
2018-07-02T09:50:07.432Z,17.20
2018-07-02T09:52:36.508Z,16.90
2018-07-02T09:55:05.815Z,16.50
2018-07-02T09:57:35.005Z,16.30
2018-07-02T10:00:04.231Z,16.20
2018-07-02T10:02:33.419Z,16.00
2018-07-02T10:05:03.019Z,15.90
2018-07-02T10:10:00.839Z,17.60
2018-07-02T10:12:30.043Z,17.30
2018-07-02T10:14:59.550Z,16.80
2018-07-02T10:17:28.937Z,16.30
2018-07-02T10:19:58.327Z,16.10
2018-07-02T10:22:27.553Z,16.40
2018-07-02T10:24:56.696Z,16.60
2018-07-02T10:27:25.884Z,16.50
2018-07-02T10:29:55.297Z,16.60
2018-07-02T10:32:24.663Z,16.60
2018-07-02T10:34:53.990Z,16.40
2018-07-02T10:37:23.149Z,16.90
2018-07-02T10:39:52.711Z,16.80
2018-07-02T10:42:22.217Z,17.90
2018-07-02T10:44:51.515Z,18.80
2018-07-02T10:47:21.129Z,17.90
2018-07-02T10:49:50.827Z,17.70
2018-07-02T10:52:20.152Z,17.60
2018-07-02T10:54:49.744Z,17.60
2018-07-02T10:57:19.060Z,17.00
2018-07-02T10:59:48.193Z,17.00
2018-07-02T11:02:17.304Z,16.90
2018-07-02T11:04:46.831Z,16.60
2018-07-02T11:07:16.000Z,17.10
2018-07-02T11:09:45.187Z,18.40
2018-07-02T11:12:14.424Z,18.20
2018-07-02T11:14:44.068Z,17.90
2018-07-02T11:17:13.245Z,17.30
2018-07-02T11:19:42.413Z,17.00
2018-07-02T11:22:11.588Z,17.00
2018-07-02T11:24:40.835Z,16.90
2018-07-02T11:27:10.176Z,16.70
2018-07-02T11:29:39.677Z,17.80
2018-07-02T11:32:09.210Z,18.90
2018-07-02T11:34:38.688Z,19.20
2018-07-02T11:37:07.918Z,19.10
2018-07-02T11:39:37.036Z,18.90
2018-07-02T11:42:06.330Z,18.80
2018-07-02T11:44:35.594Z,18.10
2018-07-02T11:47:04.727Z,16.90
2018-07-02T11:49:33.944Z,17.40
2018-07-02T11:52:03.257Z,17.60
2018-07-02T11:54:32.424Z,17.30
2018-07-02T11:57:01.750Z,17.40
2018-07-02T11:59:30.881Z,18.00
2018-07-02T12:02:00.463Z,18.70
2018-07-02T12:04:30.360Z,18.40
2018-07-02T12:09:28.508Z,17.50
2018-07-02T12:11:58.242Z,17.60
2018-07-02T12:14:27.536Z,17.70
2018-07-02T12:16:56.876Z,17.30
2018-07-02T12:19:26.653Z,17.50
2018-07-02T12:21:56.064Z,18.10
2018-07-02T12:24:25.776Z,18.90
2018-07-02T12:26:55.082Z,19.20
2018-07-02T12:29:24.422Z,18.60
2018-07-02T12:31:53.713Z,18.30
2018-07-02T12:34:23.152Z,18.20
2018-07-02T12:36:52.473Z,18.70
2018-07-02T12:39:22.174Z,18.50
2018-07-02T12:41:51.418Z,18.50
2018-07-02T12:44:20.822Z,18.10
2018-07-02T12:46:50.854Z,17.80
2018-07-02T12:49:20.424Z,17.90
2018-07-02T12:51:49.700Z,17.70
2018-07-02T12:54:19.145Z,17.60
2018-07-02T12:56:49.517Z,17.80
2018-07-02T12:59:19.212Z,18.80
2018-07-02T13:01:48.947Z,19.90
2018-07-02T13:04:18.119Z,20.20
2018-07-02T13:06:47.663Z,19.70
2018-07-02T13:09:16.723Z,18.90
2018-07-02T13:11:45.924Z,18.90
2018-07-02T13:14:15.385Z,19.70
2018-07-02T13:16:44.523Z,19.80
2018-07-02T13:19:13.820Z,20.00
2018-07-02T13:21:43.806Z,18.70
2018-07-02T13:24:13.106Z,19.50
2018-07-02T13:26:42.419Z,18.40
2018-07-02T13:29:11.549Z,19.00
2018-07-02T13:31:40.793Z,19.20
2018-07-02T13:34:10.105Z,20.00
2018-07-02T13:36:39.409Z,20.90
2018-07-02T13:39:09.017Z,19.60
2018-07-02T13:41:38.352Z,19.10
2018-07-02T13:44:07.563Z,19.40
2018-07-02T13:46:37.000Z,20.30
2018-07-02T13:49:06.323Z,20.20
2018-07-02T13:51:35.415Z,20.20
2018-07-02T13:54:04.637Z,20.80
2018-07-02T13:56:34.133Z,20.80
2018-07-02T13:59:03.471Z,20.60
2018-07-02T14:01:32.731Z,19.70
2018-07-02T14:04:02.060Z,19.80
2018-07-02T14:06:31.362Z,20.80
2018-07-02T14:13:57.884Z,19.60
2018-07-02T14:16:27.117Z,19.30
2018-07-02T14:18:56.250Z,19.70
2018-07-02T14:21:25.689Z,20.50
2018-07-02T14:23:55.060Z,21.00
2018-07-02T14:26:24.313Z,20.70
2018-07-02T14:28:53.495Z,20.20
2018-07-02T14:31:22.701Z,20.30
2018-07-02T14:33:51.720Z,20.40
2018-07-02T14:36:21.196Z,20.90
2018-07-02T14:38:50.720Z,20.80
2018-07-02T14:41:19.966Z,21.30
2018-07-02T14:43:49.025Z,21.60
2018-07-02T14:46:18.586Z,21.10
2018-07-02T14:48:47.837Z,20.40
2018-07-02T14:51:16.998Z,20.00
2018-07-02T14:53:47.408Z,19.70
2018-07-02T14:56:16.565Z,19.40
2018-07-02T14:58:45.536Z,19.00
2018-07-02T15:01:14.736Z,19.40
2018-07-02T15:03:43.995Z,19.80
2018-07-02T15:06:13.586Z,19.60
2018-07-02T15:08:42.993Z,18.70
2018-07-02T15:11:12.163Z,19.50
2018-07-02T15:13:41.656Z,20.20
2018-07-02T15:16:11.394Z,20.70
2018-07-02T15:18:40.461Z,20.70
2018-07-02T15:21:09.694Z,19.80
2018-07-02T15:23:39.614Z,20.00
2018-07-02T15:26:09.489Z,19.90
2018-07-02T15:28:38.937Z,19.70
2018-07-02T15:31:08.627Z,19.40
2018-07-02T15:33:37.742Z,19.10
2018-07-02T15:36:06.944Z,19.10
2018-07-02T15:38:36.206Z,19.50
2018-07-02T15:41:05.625Z,19.80
2018-07-02T15:43:34.785Z,19.30
2018-07-02T15:46:04.363Z,19.70
2018-07-02T15:48:34.156Z,19.80
2018-07-02T15:51:03.190Z,20.20
2018-07-02T15:53:32.346Z,19.70
2018-07-02T15:56:01.667Z,19.10
2018-07-02T15:58:31.191Z,19.30
2018-07-02T16:01:00.400Z,19.50
2018-07-02T16:03:30.267Z,19.30
2018-07-02T16:08:28.231Z,19.50
2018-07-02T16:10:57.473Z,19.50
2018-07-02T16:13:27.111Z,18.90
2018-07-02T16:15:56.579Z,18.50
2018-07-02T16:18:25.917Z,18.20
2018-07-02T16:20:55.350Z,18.20
2018-07-02T16:23:25.053Z,18.00
2018-07-02T16:25:54.660Z,18.00
2018-07-02T16:28:23.917Z,18.00
2018-07-02T16:30:53.717Z,18.50
2018-07-02T16:33:23.016Z,18.70
2018-07-02T16:35:52.219Z,18.60
2018-07-02T16:38:21.749Z,18.60
2018-07-02T16:40:50.978Z,18.70
2018-07-02T16:43:20.451Z,18.50
2018-07-02T16:45:50.075Z,18.40
2018-07-02T16:48:20.581Z,18.00
2018-07-02T16:50:50.248Z,17.80
2018-07-02T16:53:20.319Z,17.70
2018-07-02T16:55:51.227Z,17.50
2018-07-02T16:58:20.825Z,17.20
2018-07-02T17:00:50.135Z,17.10
2018-07-02T17:03:19.681Z,16.70
2018-07-02T17:05:49.227Z,16.30
2018-07-02T17:08:18.385Z,16.00
2018-07-02T17:10:47.556Z,15.70
2018-07-02T17:13:17.225Z,15.50
2018-07-02T17:15:46.438Z,15.20
2018-07-02T17:18:16.013Z,15.20
2018-07-02T17:20:45.387Z,14.80
2018-07-02T17:23:14.627Z,14.30
2018-07-02T17:25:43.778Z,14.20
2018-07-02T17:28:13.472Z,14.00
2018-07-02T17:30:42.744Z,14.00
2018-07-02T17:33:12.151Z,14.30
2018-07-02T17:35:41.566Z,14.10
2018-07-02T17:38:10.965Z,14.00
2018-07-02T17:40:40.410Z,14.00
2018-07-02T17:43:09.603Z,14.20
2018-07-02T17:45:39.584Z,14.40
2018-07-02T17:48:08.594Z,14.40
2018-07-02T17:50:38.229Z,14.20
2018-07-02T17:53:07.652Z,13.80
2018-07-02T17:55:36.912Z,14.00
2018-07-02T17:58:06.630Z,14.00
2018-07-02T18:00:36.773Z,14.20
2018-07-02T18:03:06.366Z,14.30
2018-07-02T18:05:35.902Z,14.40
2018-07-02T18:08:05.663Z,14.40
2018-07-02T18:10:35.101Z,14.50
2018-07-02T18:13:04.630Z,14.40
2018-07-02T18:15:34.147Z,14.50
2018-07-02T18:18:03.757Z,14.40
2018-07-02T18:20:32.934Z,14.30
2018-07-02T18:23:02.406Z,14.30
2018-07-02T18:25:31.651Z,14.20
2018-07-02T18:28:01.222Z,14.00
2018-07-02T18:30:30.656Z,13.90
2018-07-02T18:33:00.622Z,13.90
2018-07-02T18:35:29.938Z,13.70
2018-07-02T18:37:59.000Z,13.60
2018-07-02T18:40:28.582Z,13.50
2018-07-02T18:42:58.244Z,13.50
2018-07-02T18:45:27.892Z,13.40
2018-07-02T18:47:58.471Z,13.30
2018-07-02T18:50:27.763Z,13.20
2018-07-02T18:52:57.009Z,13.20
2018-07-02T18:55:26.346Z,13.10
2018-07-02T18:57:55.814Z,12.90
2018-07-02T19:00:25.785Z,12.70
2018-07-02T19:02:55.030Z,12.70
2018-07-02T19:05:24.450Z,12.60
2018-07-02T19:07:53.857Z,12.50
2018-07-02T19:10:23.772Z,12.30
2018-07-02T19:12:53.484Z,12.20
2018-07-02T19:15:23.353Z,12.10
2018-07-02T19:17:52.598Z,12.00
2018-07-02T19:20:21.924Z,11.90
2018-07-02T19:22:51.288Z,11.90
2018-07-02T19:25:20.495Z,11.90
2018-07-02T19:32:48.552Z,11.60
2018-07-02T19:35:17.832Z,11.50
2018-07-02T19:37:46.985Z,11.30
2018-07-02T19:40:16.834Z,11.20
2018-07-02T19:42:46.704Z,11.20
2018-07-02T19:45:17.307Z,11.00
2018-07-02T19:47:47.128Z,10.90
2018-07-02T19:50:16.798Z,10.70
2018-07-02T19:52:45.964Z,10.80
2018-07-02T19:55:15.179Z,10.70
2018-07-02T19:57:44.806Z,10.50
2018-07-02T20:00:14.008Z,10.50
2018-07-02T20:02:43.360Z,10.50
2018-07-02T20:05:12.444Z,10.40
2018-07-02T20:07:41.867Z,10.20
2018-07-02T20:10:11.084Z,10.30
2018-07-02T20:12:40.652Z,10.30
2018-07-02T20:15:10.008Z,10.40
2018-07-02T20:17:39.568Z,10.30
2018-07-02T20:20:10.858Z,10.00
2018-07-02T20:22:40.195Z,9.80
2018-07-02T20:25:10.286Z,9.80
2018-07-02T20:27:39.581Z,9.90
2018-07-02T20:30:09.433Z,9.90
2018-07-02T20:32:41.481Z,9.80
2018-07-02T20:35:11.508Z,9.90
2018-07-02T20:37:41.024Z,9.90
2018-07-02T20:40:10.353Z,9.80
2018-07-02T20:42:39.539Z,9.80
2018-07-02T20:45:10.069Z,9.70
2018-07-02T20:47:39.276Z,9.60
2018-07-02T20:50:08.715Z,9.50
2018-07-02T20:52:38.265Z,9.50
2018-07-02T20:55:07.544Z,9.30
2018-07-02T20:57:37.403Z,9.30
2018-07-02T21:00:07.492Z,9.10
2018-07-02T21:02:36.762Z,8.90
2018-07-02T21:05:05.975Z,9.00
2018-07-02T21:07:35.182Z,9.00
2018-07-02T21:10:04.947Z,9.00
2018-07-02T21:12:33.939Z,8.90
2018-07-02T21:15:03.221Z,9.00
2018-07-02T21:17:32.308Z,8.90
2018-07-02T21:20:01.825Z,8.80
2018-07-02T21:22:31.111Z,8.90
2018-07-02T21:25:00.236Z,8.90
2018-07-02T21:27:29.464Z,8.80
2018-07-02T21:29:58.687Z,8.70
2018-07-02T21:32:27.872Z,8.70
2018-07-02T21:34:57.066Z,8.60
2018-07-02T21:37:26.364Z,8.50
2018-07-02T21:39:55.477Z,8.50
2018-07-02T21:42:25.456Z,8.40
2018-07-02T21:44:54.848Z,8.40
2018-07-02T21:47:25.252Z,8.30
2018-07-02T21:49:55.173Z,8.10
2018-07-02T21:52:24.670Z,8.10
2018-07-02T21:54:54.113Z,7.90
2018-07-02T21:57:23.592Z,7.80
2018-07-02T21:59:53.008Z,7.70
2018-07-02T22:02:22.139Z,7.80
2018-07-02T22:04:51.433Z,7.90
2018-07-02T22:07:20.545Z,7.80
2018-07-02T22:09:49.779Z,7.80
2018-07-02T22:12:19.228Z,7.60
2018-07-02T22:14:48.747Z,7.40
2018-07-02T22:17:18.231Z,7.60
2018-07-02T22:19:47.817Z,7.60
2018-07-02T22:22:17.439Z,7.70
2018-07-02T22:24:47.152Z,7.50
2018-07-02T22:27:16.628Z,7.30
2018-07-02T22:29:46.302Z,7.40
2018-07-02T22:32:15.627Z,7.50
2018-07-02T22:34:44.936Z,7.50
2018-07-02T22:37:14.131Z,7.50
2018-07-02T22:39:43.467Z,7.20
2018-07-02T22:42:12.927Z,7.30
2018-07-02T22:44:42.094Z,7.30
2018-07-02T22:47:11.607Z,7.20
2018-07-02T22:49:40.717Z,6.90
2018-07-02T22:52:09.916Z,7.10
2018-07-02T22:54:39.148Z,7.20
2018-07-02T22:57:08.327Z,7.20
2018-07-02T22:59:37.710Z,7.30
2018-07-02T23:02:06.852Z,7.20
2018-07-02T23:04:35.860Z,7.20
2018-07-02T23:07:05.107Z,7.30
2018-07-02T23:09:34.443Z,7.20
2018-07-02T23:14:32.329Z,7.10
2018-07-02T23:17:01.416Z,7.10
2018-07-02T23:19:30.563Z,7.10
2018-07-02T23:21:59.724Z,7.10
2018-07-02T23:24:29.128Z,7.00
2018-07-02T23:26:58.131Z,6.90
2018-07-02T23:29:27.280Z,6.90
2018-07-02T23:31:56.508Z,6.90
2018-07-02T23:34:25.907Z,6.70
2018-07-02T23:36:54.904Z,6.60
2018-07-02T23:39:24.184Z,6.60
2018-07-02T23:41:53.301Z,6.70
2018-07-02T23:44:22.771Z,6.60
2018-07-02T23:46:51.955Z,6.50
2018-07-02T23:49:21.374Z,6.50
2018-07-02T23:51:50.737Z,6.60
2018-07-02T23:54:19.837Z,6.60
2018-07-02T23:56:49.246Z,6.40
2018-07-02T23:59:18.391Z,6.40
